Time;durP1;ratioP1;P1;durP2;ratioP2;P2;SDS_P1;SDS_P2;PMS_P1;PMS_P2;Temp;Humidity;BMP_temperature;BMP_pressure;BME280_temperature;BME280_humidity;BME280_pressure;Samples;Min_cycle;Max_cycle;Signal;HPM_P1;HPM_P2
2022/07/07 00:01:06;;;;;;;1.75;0.30;;;16.70;86.40;;;;;;5010292;28;20387;-88
2022/07/07 00:04:02;;;;;;;2.42;0.57;;;16.80;85.90;;;;;;5005239;28;20049;-89
2022/07/07 00:10:07;;;;;;;1.75;0.50;;;17.00;86.90;;;;;;4990792;28;20045;-89
2022/07/07 00:15:33;;;;;;;1.00;0.40;;;16.90;87.10;;;;;;5006620;28;20033;-89
2022/07/07 00:18:19;;;;;;;1.10;0.35;;;16.80;86.40;;;;;;5006311;28;20052;-89
2022/07/07 00:21:12;;;;;;;0.82;0.22;;;16.90;85.90;;;;;;5003296;28;20094;-89
2022/07/07 00:23:41;;;;;;;3.25;0.57;;;16.90;85.60;;;;;;5006254;28;20044;-89
2022/07/07 00:26:20;;;;;;;0.82;0.38;;;16.70;85.80;;;;;;5005144;28;20034;-89
2022/07/07 00:28:51;;;;;;;1.02;0.25;;;16.70;85.90;;;;;;5016412;28;20050;-89
2022/07/07 00:31:47;;;;;;;1.10;0.37;;;16.80;85.70;;;;;;5004584;28;20505;-89
2022/07/07 00:34:39;;;;;;;0.98;0.40;;;16.90;85.90;;;;;;5000317;28;20267;-89
2022/07/07 00:37:11;;;;;;;1.50;0.30;;;16.80;85.00;;;;;;5024033;28;20030;-88
2022/07/07 00:39:48;;;;;;;0.77;0.43;;;16.80;85.50;;;;;;5001032;28;20061;-88
2022/07/07 00:42:39;;;;;;;;;;;;;;;;;;;;;
2022/07/07 00:45:18;;;;;;;1.77;0.37;;;16.60;85.80;;;;;;5022667;28;20057;-87
2022/07/07 00:48:41;;;;;;;1.30;0.40;;;16.70;86.70;;;;;;5010762;28;20034;-89
2022/07/07 00:51:36;;;;;;;1.35;0.30;;;16.70;87.10;;;;;;5036297;23;20056;-88
2022/07/07 00:54:13;;;;;;;0.93;0.40;;;16.70;87.20;;;;;;5006779;28;20034;-89
2022/07/07 00:56:50;;;;;;;1.20;0.35;;;16.80;87.10;;;;;;4998191;28;20084;-89
2022/07/07 00:59:31;;;;;;;;;;;;;;;;;;;;;
2022/07/07 01:02:13;;;;;;;3.10;0.50;;;16.80;87.30;;;;;;5013836;28;20551;-88
2022/07/07 01:04:39;;;;;;;;;;;16.80;87.70;;;;;;5019633;23;20046;-86
2022/07/07 01:07:05;;;;;;;1.17;0.38;;;16.80;88.30;;;;;;4971749;28;20503;-86
2022/07/07 01:09:31;;;;;;;0.95;0.40;;;16.80;88.60;;;;;;4972289;28;20415;-86
2022/07/07 01:11:57;;;;;;;2.63;0.40;;;16.80;88.60;;;;;;4972552;28;20027;-86
2022/07/07 01:14:24;;;;;;;0.82;0.32;;;16.80;88.90;;;;;;4979639;28;20054;-86
2022/07/07 01:16:51;;;;;;;1.10;0.30;;;16.70;89.40;;;;;;4970079;28;20041;-86
2022/07/07 01:19:21;;;;;;;1.60;0.40;;;16.60;90.10;;;;;;4979959;28;20053;-86
2022/07/07 01:21:53;;;;;;;1.95;0.60;;;16.50;90.10;;;;;;4972455;28;20022;-86
2022/07/07 01:24:20;;;;;;;2.78;0.50;;;16.50;90.10;;;;;;4969689;28;20027;-86
2022/07/07 01:26:46;;;;;;;3.22;0.85;;;16.50;90.20;;;;;;4970574;28;20035;-86
2022/07/07 01:29:11;;;;;;;2.22;0.50;;;16.50;90.20;;;;;;4971133;28;20081;-86
2022/07/07 01:31:37;;;;;;;2.35;0.50;;;16.50;90.40;;;;;;4971827;28;20031;-86
2022/07/07 01:34:03;;;;;;;1.42;0.40;;;16.50;90.10;;;;;;4970878;28;20403;-86
2022/07/07 01:36:28;;;;;;;2.65;0.60;;;16.50;90.20;;;;;;4972003;28;20073;-86
2022/07/07 01:38:54;;;;;;;0.65;0.38;;;16.50;90.20;;;;;;4972044;28;20039;-86
2022/07/07 01:41:20;;;;;;;1.48;0.52;;;16.70;90.30;;;;;;4972248;28;20499;-86
2022/07/07 01:43:45;;;;;;;2.70;0.45;;;16.50;90.30;;;;;;4968222;28;20113;-86
2022/07/07 01:46:11;;;;;;;1.90;0.40;;;16.50;90.20;;;;;;4970740;28;20471;-86
2022/07/07 01:48:36;;;;;;;0.38;0.20;;;16.50;90.10;;;;;;4970440;28;20030;-86
2022/07/07 01:51:03;;;;;;;1.33;0.40;;;16.50;90.40;;;;;;4972228;28;20163;-86
2022/07/07 01:53:29;;;;;;;0.95;0.30;;;16.50;90.10;;;;;;4970595;28;20734;-86
2022/07/07 01:55:54;;;;;;;0.75;0.38;;;16.50;88.90;;;;;;4971948;28;20111;-86
2022/07/07 01:58:20;;;;;;;1.63;0.30;;;16.50;88.70;;;;;;4970738;28;20476;-86
2022/07/07 02:00:45;;;;;;;2.40;0.30;;;16.40;88.70;;;;;;4971484;28;20058;-86
2022/07/07 02:03:11;;;;;;;1.23;0.38;;;16.30;89.60;;;;;;4969346;28;20166;-85
2022/07/07 02:05:37;;;;;;;2.72;0.60;;;16.40;90.00;;;;;;4971295;28;20049;-87
2022/07/07 02:08:03;;;;;;;1.30;0.50;;;16.40;90.90;;;;;;4970571;28;20570;-86
2022/07/07 02:13:12;;;;;;;1.83;0.50;;;16.30;91.10;;;;;;4971938;28;20037;-86
2022/07/07 02:15:38;;;;;;;1.98;0.45;;;16.30;91.60;;;;;;4970393;28;20030;-87
2022/07/07 02:18:04;;;;;;;1.23;0.40;;;16.30;91.70;;;;;;4969832;28;20038;-85
2022/07/07 02:20:30;;;;;;;3.28;0.70;;;16.20;91.50;;;;;;4969629;28;20041;-86
2022/07/07 02:22:55;;;;;;;1.70;0.50;;;16.20;91.50;;;;;;4973937;28;20031;-86
2022/07/07 02:25:21;;;;;;;1.27;0.40;;;16.20;91.60;;;;;;4972165;28;20042;-86
2022/07/07 02:27:46;;;;;;;0.80;0.32;;;16.10;91.60;;;;;;4973292;28;20042;-86
2022/07/07 02:30:12;;;;;;;2.42;0.40;;;16.10;91.70;;;;;;4974518;28;20043;-87
2022/07/07 02:32:38;;;;;;;0.82;0.35;;;16.00;91.70;;;;;;4975255;28;20031;-85
2022/07/07 02:35:04;;;;;;;1.13;0.30;;;16.00;91.70;;;;;;4975038;28;20114;-86
2022/07/07 02:37:29;;;;;;;1.15;0.50;;;16.00;91.80;;;;;;4974215;28;20118;-86
2022/07/07 02:39:55;;;;;;;1.20;0.40;;;16.00;91.80;;;;;;4976197;28;20106;-86
2022/07/07 02:42:21;;;;;;;1.30;0.47;;;16.00;91.80;;;;;;4973903;28;20480;-86
2022/07/07 02:44:46;;;;;;;1.48;0.43;;;16.10;92.10;;;;;;4975335;28;20062;-87
2022/07/07 02:47:12;;;;;;;0.93;0.30;;;16.00;92.00;;;;;;4973981;28;20033;-86
2022/07/07 02:49:37;;;;;;;0.77;0.35;;;16.50;92.30;;;;;;4975666;28;20034;-86
2022/07/07 02:52:04;;;;;;;1.30;0.45;;;16.00;92.30;;;;;;4974966;28;20066;-86
2022/07/07 02:54:30;;;;;;;0.82;0.40;;;16.00;92.30;;;;;;4973829;28;20134;-87
2022/07/07 02:56:55;;;;;;;1.25;0.50;;;15.70;92.20;;;;;;4973288;28;20046;-86
2022/07/07 02:59:21;;;;;;;1.02;0.35;;;16.00;92.10;;;;;;4973668;28;20027;-86
2022/07/07 03:01:46;;;;;;;0.82;0.43;;;16.00;92.10;;;;;;4973418;28;20102;-87
2022/07/07 03:04:12;;;;;;;0.75;0.28;;;16.00;91.90;;;;;;4974197;28;20410;-86
2022/07/07 03:06:38;;;;;;;2.17;0.47;;;16.00;91.80;;;;;;4975376;28;20053;-86
2022/07/07 03:09:03;;;;;;;0.68;0.20;;;16.00;91.50;;;;;;4975328;28;20483;-86
2022/07/07 03:11:29;;;;;;;1.23;0.40;;;15.90;92.00;;;;;;4972842;28;20034;-86
2022/07/07 03:13:55;;;;;;;2.17;0.38;;;15.90;91.90;;;;;;4972272;28;20042;-87
2022/07/07 03:16:20;;;;;;;1.15;0.30;;;15.90;92.00;;;;;;4966887;28;20043;-86
2022/07/07 03:18:46;;;;;;;1.05;0.50;;;15.90;92.20;;;;;;4973055;28;20039;-86
2022/07/07 03:21:11;;;;;;;0.82;0.30;;;15.90;92.20;;;;;;4973848;28;20475;-86
2022/07/07 03:23:38;;;;;;;2.20;0.50;;;15.90;92.40;;;;;;4972637;28;20495;-86
2022/07/07 03:26:03;;;;;;;1.88;0.40;;;15.80;92.40;;;;;;4970233;28;20147;-85
2022/07/07 03:28:29;;;;;;;1.15;0.60;;;15.80;92.10;;;;;;4974393;28;20466;-86
2022/07/07 03:30:55;;;;;;;1.17;0.35;;;15.70;92.20;;;;;;4972253;28;20031;-86
2022/07/07 03:33:21;;;;;;;0.88;0.30;;;15.70;92.50;;;;;;4971218;28;20531;-86
2022/07/07 03:35:46;;;;;;;0.98;0.30;;;15.70;92.60;;;;;;4971981;28;20141;-86
2022/07/07 03:38:12;;;;;;;1.95;0.50;;;15.80;92.70;;;;;;4973917;28;20134;-86
2022/07/07 03:40:38;;;;;;;1.23;0.30;;;15.70;92.70;;;;;;4973126;28;20077;-86
2022/07/07 03:43:03;;;;;;;0.60;0.30;;;15.80;92.40;;;;;;4974328;28;20019;-86
2022/07/07 03:45:29;;;;;;;0.80;0.50;;;15.80;92.50;;;;;;4974245;28;20027;-86
2022/07/07 03:47:55;;;;;;;1.55;0.40;;;15.80;92.80;;;;;;4973135;28;20077;-86
2022/07/07 03:50:20;;;;;;;0.80;0.45;;;15.80;92.50;;;;;;4971648;28;20034;-87
2022/07/07 03:52:46;;;;;;;1.10;0.35;;;15.80;92.40;;;;;;4973162;28;20431;-86
2022/07/07 03:55:12;;;;;;;0.80;0.40;;;15.70;92.70;;;;;;4973960;28;20062;-86
2022/07/07 03:57:38;;;;;;;2.50;0.30;;;15.80;92.50;;;;;;4973737;28;20026;-86
2022/07/07 04:00:05;;;;;;;1.58;0.50;;;15.70;92.80;;;;;;4973905;28;20031;-86
2022/07/07 04:02:30;;;;;;;1.00;0.40;;;15.80;92.90;;;;;;4973131;28;20049;-86
2022/07/07 04:04:56;;;;;;;0.95;0.30;;;15.80;92.80;;;;;;4975033;28;20438;-86
2022/07/07 04:07:22;;;;;;;0.57;0.20;;;15.80;92.80;;;;;;4969070;28;20027;-87
2022/07/07 04:09:47;;;;;;;0.95;0.40;;;15.90;92.60;;;;;;4972798;28;20041;-86
2022/07/07 04:12:13;;;;;;;0.55;0.38;;;15.90;92.80;;;;;;4972395;28;20499;-87
2022/07/07 04:14:39;;;;;;;0.65;0.38;;;16.00;92.60;;;;;;4971913;28;20042;-86
2022/07/07 04:17:05;;;;;;;0.60;0.30;;;16.00;92.20;;;;;;4972499;28;20046;-86
2022/07/07 04:19:30;;;;;;;0.52;0.30;;;16.00;92.20;;;;;;4971981;28;20474;-87
2022/07/07 04:21:56;;;;;;;1.27;0.50;;;16.00;92.00;;;;;;4970252;28;20019;-86
2022/07/07 04:24:22;;;;;;;1.75;0.45;;;16.00;92.00;;;;;;4968769;28;20558;-86
2022/07/07 04:26:48;;;;;;;2.42;0.50;;;16.00;91.90;;;;;;4969605;28;20026;-85
2022/07/07 04:29:19;;;;;;;0.63;0.30;;;16.10;92.40;;;;;;4969806;28;20037;-86
2022/07/07 04:31:45;;;;;;;2.88;0.60;;;16.10;92.20;;;;;;4972675;28;20030;-86
2022/07/07 04:34:14;;;;;;;3.40;0.52;;;16.00;91.80;;;;;;4972134;28;20039;-87
2022/07/07 04:36:40;;;;;;;1.20;0.32;;;16.10;92.10;;;;;;4969953;28;20090;-87
2022/07/07 04:39:06;;;;;;;0.65;0.40;;;16.10;92.00;;;;;;4973344;28;20515;-86
2022/07/07 04:41:31;;;;;;;0.93;0.45;;;16.10;91.90;;;;;;4973930;28;20058;-86
2022/07/07 04:43:57;;;;;;;2.20;0.60;;;16.20;91.60;;;;;;4973529;28;20551;-87
2022/07/07 04:46:23;;;;;;;0.65;0.38;;;16.30;91.90;;;;;;4971747;28;20046;-86
2022/07/07 04:48:48;;;;;;;0.40;0.17;;;16.30;91.90;;;;;;4973324;28;20022;-86
2022/07/07 04:51:14;;;;;;;1.00;0.40;;;16.30;91.70;;;;;;4971336;28;20039;-86
2022/07/07 04:53:40;;;;;;;1.08;0.40;;;16.40;91.90;;;;;;4971285;28;20019;-87
2022/07/07 04:56:05;;;;;;;1.45;0.40;;;16.40;91.90;;;;;;4968213;28;20035;-86
2022/07/07 04:58:31;;;;;;;1.63;0.45;;;16.40;91.70;;;;;;4971280;28;20027;-86
2022/07/07 05:00:57;;;;;;;2.13;0.43;;;16.50;91.90;;;;;;4969399;28;20403;-86
2022/07/07 05:03:23;;;;;;;0.82;0.25;;;16.50;91.90;;;;;;4967832;28;20029;-86
2022/07/07 05:05:48;;;;;;;1.30;0.60;;;16.50;92.10;;;;;;4968752;28;20030;-86
2022/07/07 05:08:14;;;;;;;2.08;0.45;;;16.50;92.50;;;;;;4969114;28;20074;-85
2022/07/07 05:10:40;;;;;;;1.73;0.50;;;16.50;92.10;;;;;;4969343;28;20030;-86
2022/07/07 05:13:06;;;;;;;2.80;0.68;;;16.50;92.00;;;;;;4972404;28;20086;-86
2022/07/07 05:15:32;;;;;;;0.85;0.40;;;16.60;91.80;;;;;;4968969;28;20114;-85
2022/07/07 05:17:57;;;;;;;0.95;0.40;;;16.70;92.00;;;;;;4968972;28;20414;-85
2022/07/07 05:20:23;;;;;;;2.03;0.30;;;16.70;91.80;;;;;;4966445;28;20041;-86
2022/07/07 05:22:49;;;;;;;0.50;0.22;;;16.80;91.90;;;;;;4968817;28;20089;-86
2022/07/07 05:25:14;;;;;;;1.00;0.30;;;16.90;91.50;;;;;;4969568;28;20616;-86
2022/07/07 05:27:40;;;;;;;0.88;0.40;;;17.10;91.20;;;;;;4968095;28;20019;-86
2022/07/07 05:30:06;;;;;;;0.57;0.30;;;17.10;90.90;;;;;;4967158;28;20114;-86
2022/07/07 05:32:32;;;;;;;1.00;0.30;;;17.10;90.80;;;;;;4969851;28;20518;-86
2022/07/07 05:34:58;;;;;;;1.58;0.40;;;17.00;90.90;;;;;;4967710;28;20031;-86
2022/07/07 05:37:23;;;;;;;0.80;0.30;;;17.00;91.10;;;;;;4966738;28;20031;-86
2022/07/07 05:39:49;;;;;;;1.23;0.70;;;16.90;91.30;;;;;;4969229;28;20169;-86
2022/07/07 05:42:15;;;;;;;0.63;0.20;;;16.90;91.30;;;;;;4970614;28;20015;-85
2022/07/07 05:44:41;;;;;;;0.43;0.30;;;16.80;91.50;;;;;;4970734;28;20495;-86
2022/07/07 05:47:07;;;;;;;3.33;0.40;;;16.70;91.40;;;;;;4969586;28;20106;-86
2022/07/07 05:49:32;;;;;;;0.98;0.28;;;16.70;91.50;;;;;;4961763;28;20161;-85
2022/07/07 05:51:58;;;;;;;0.60;0.30;;;16.70;91.60;;;;;;4970581;28;20117;-86
2022/07/07 05:54:24;;;;;;;1.65;0.40;;;16.80;91.70;;;;;;4970183;28;20110;-85
2022/07/07 05:56:50;;;;;;;1.42;0.20;;;16.90;91.60;;;;;;4971008;28;20030;-87
2022/07/07 05:59:15;;;;;;;1.58;0.40;;;17.20;91.40;;;;;;4985600;28;20045;-86
2022/07/07 06:01:44;;;;;;;0.88;0.20;;;17.40;91.10;;;;;;4970647;28;20030;-86
2022/07/07 06:04:09;;;;;;;1.20;0.30;;;17.60;90.60;;;;;;4970046;28;20037;-86
2022/07/07 06:06:35;;;;;;;1.10;0.30;;;17.70;90.30;;;;;;4971269;28;20022;-86
2022/07/07 06:09:00;;;;;;;1.15;0.50;;;17.80;90.30;;;;;;4970130;28;20554;-86
2022/07/07 06:11:26;;;;;;;1.27;0.25;;;17.90;90.30;;;;;;4970367;28;20054;-86
2022/07/07 06:13:52;;;;;;;1.35;0.40;;;18.10;90.10;;;;;;4969676;28;20022;-86
2022/07/07 06:16:17;;;;;;;2.15;0.40;;;18.20;90.20;;;;;;4969524;28;20460;-87
2022/07/07 06:19:03;;;;;;;0.75;0.30;;;18.30;89.40;;;;;;4969019;28;20041;-86
2022/07/07 06:21:28;;;;;;;0.95;0.57;;;18.30;89.50;;;;;;4970444;28;20097;-86
2022/07/07 06:23:54;;;;;;;1.65;0.47;;;18.50;89.40;;;;;;4973828;28;20030;-87
2022/07/07 06:26:20;;;;;;;1.02;0.35;;;18.50;88.90;;;;;;4973203;28;20031;-87
2022/07/07 06:28:45;;;;;;;1.45;0.43;;;18.50;89.30;;;;;;4970945;28;20459;-86
2022/07/07 06:31:11;;;;;;;2.60;0.40;;;18.40;89.70;;;;;;4969699;28;20038;-86
2022/07/07 06:33:36;;;;;;;1.17;0.38;;;18.30;90.10;;;;;;4968483;28;20022;-86
2022/07/07 06:36:02;;;;;;;1.42;0.50;;;18.20;90.00;;;;;;4968785;28;20027;-86
2022/07/07 06:38:27;;;;;;;1.45;0.30;;;18.10;90.40;;;;;;4971784;28;20044;-87
2022/07/07 06:40:58;;;;;;;0.98;0.30;;;18.40;90.60;;;;;;4972697;28;20496;-87
2022/07/07 06:43:24;;;;;;;1.00;0.40;;;18.50;90.30;;;;;;4969427;28;20495;-87
2022/07/07 06:45:50;;;;;;;1.40;0.30;;;18.80;89.10;;;;;;4970315;28;20054;-92
2022/07/07 06:48:27;;;;;;;1.67;0.50;;;19.00;89.10;;;;;;4968826;28;20501;-92
2022/07/07 06:51:24;;;;;;;0.93;0.40;;;19.30;89.00;;;;;;4962010;28;20035;-92
2022/07/07 06:53:56;;;;;;;0.88;0.30;;;19.10;88.40;;;;;;4965546;28;20114;-92
2022/07/07 06:56:24;;;;;;;1.27;0.60;;;19.30;87.90;;;;;;4967222;28;20070;-92
2022/07/07 06:59:00;;;;;;;0.40;0.20;;;19.40;87.90;;;;;;4971046;28;20039;-92
2022/07/07 07:01:30;;;;;;;1.75;0.40;;;19.50;87.70;;;;;;4971706;28;20019;-93
2022/07/07 07:03:56;;;;;;;2.95;0.47;;;19.90;86.50;;;;;;4970381;28;20866;-93
2022/07/07 07:06:34;;;;;;;2.40;0.32;;;20.00;86.40;;;;;;4987077;28;20053;-86
2022/07/07 07:09:00;;;;;;;1.00;0.30;;;20.00;85.80;;;;;;4976502;28;20026;-86
2022/07/07 07:11:27;;;;;;;0.60;0.30;;;20.00;85.00;;;;;;4970897;28;20108;-85
2022/07/07 07:13:52;;;;;;;2.10;0.30;;;20.00;86.00;;;;;;4973849;28;20030;-86
2022/07/07 07:16:18;;;;;;;1.58;0.40;;;20.10;84.70;;;;;;4975417;28;20025;-85
2022/07/07 07:18:44;;;;;;;1.40;0.45;;;20.20;85.20;;;;;;4988109;28;20098;-86
2022/07/07 07:21:11;;;;;;;1.25;0.40;;;20.30;84.60;;;;;;4973187;28;20660;-85
2022/07/07 07:23:37;;;;;;;1.20;0.40;;;20.40;84.70;;;;;;4990717;28;20029;-85
2022/07/07 07:26:04;;;;;;;1.15;0.40;;;20.30;84.80;;;;;;4975867;28;20030;-85
2022/07/07 07:28:30;;;;;;;2.10;0.35;;;20.50;84.90;;;;;;4981652;28;20133;-86
2022/07/07 07:30:56;;;;;;;1.10;0.32;;;20.60;85.20;;;;;;4980420;28;20022;-86
2022/07/07 07:33:22;;;;;;;1.92;0.60;;;20.50;84.80;;;;;;5000204;28;20026;-87
2022/07/07 07:35:48;;;;;;;2.53;0.60;;;20.50;85.30;;;;;;4984832;28;20023;-87
2022/07/07 07:38:13;;;;;;;2.08;0.35;;;20.50;85.20;;;;;;4979505;28;20025;-86
2022/07/07 07:40:39;;;;;;;1.30;0.30;;;20.70;84.80;;;;;;4975803;28;20022;-87
2022/07/07 07:43:05;;;;;;;3.33;0.45;;;20.80;83.70;;;;;;5000002;28;20034;-85
2022/07/07 07:45:31;;;;;;;3.85;0.82;;;20.60;84.40;;;;;;4997256;28;20046;-85
2022/07/07 07:47:57;;;;;;;1.25;0.25;;;20.50;85.30;;;;;;4997784;28;20032;-86
2022/07/07 07:50:22;;;;;;;1.73;0.40;;;20.50;85.40;;;;;;4993965;28;20105;-86
2022/07/07 07:52:49;;;;;;;1.98;0.40;;;20.40;86.50;;;;;;4977910;28;20407;-85
2022/07/07 07:55:17;;;;;;;3.75;0.55;;;20.50;85.00;;;;;;4993490;28;20061;-87
2022/07/07 07:57:44;;;;;;;1.65;0.40;;;20.60;84.70;;;;;;4976156;28;20036;-86
2022/07/07 08:00:12;;;;;;;2.03;0.43;;;20.70;86.20;;;;;;4993089;28;20526;-86
2022/07/07 08:02:39;;;;;;;2.03;0.70;;;20.80;86.10;;;;;;4976328;28;20390;-86
2022/07/07 08:05:05;;;;;;;0.80;0.30;;;20.80;85.60;;;;;;4975093;28;20068;-86
2022/07/07 08:07:32;;;;;;;1.00;0.30;;;20.50;85.80;;;;;;4980042;28;20343;-86
2022/07/07 08:09:58;;;;;;;1.35;0.30;;;20.60;86.60;;;;;;4977206;28;20431;-86
2022/07/07 08:12:24;;;;;;;1.80;0.30;;;20.40;87.00;;;;;;4976926;28;20023;-86
2022/07/07 08:14:50;;;;;;;2.40;0.50;;;20.30;87.10;;;;;;4988575;28;20585;-86
2022/07/07 08:17:15;;;;;;;1.83;0.45;;;20.20;87.70;;;;;;4969186;28;20154;-87
2022/07/07 08:19:41;;;;;;;1.00;0.30;;;20.10;86.90;;;;;;4992245;28;20026;-86
2022/07/07 08:22:07;;;;;;;1.20;0.40;;;19.80;87.90;;;;;;4992347;28;20469;-86
2022/07/07 08:24:33;;;;;;;2.97;0.40;;;20.00;88.40;;;;;;4989655;28;20050;-86
2022/07/07 08:26:58;;;;;;;1.20;0.43;;;20.00;88.20;;;;;;4992811;28;20014;-86
2022/07/07 08:29:24;;;;;;;2.22;0.50;;;20.00;88.00;;;;;;4995953;28;20033;-86
2022/07/07 08:31:49;;;;;;;1.20;0.50;;;20.10;88.60;;;;;;4989993;28;20705;-86
2022/07/07 08:34:15;;;;;;;1.52;0.50;;;20.00;88.10;;;;;;4992088;28;20467;-86
2022/07/07 08:36:41;;;;;;;0.60;0.30;;;20.10;88.00;;;;;;4972602;28;20022;-86
2022/07/07 08:39:07;;;;;;;3.20;0.70;;;20.10;88.00;;;;;;4991024;28;20054;-86
2022/07/07 08:41:33;;;;;;;1.83;0.50;;;20.00;88.20;;;;;;4975059;28;20026;-86
2022/07/07 08:43:59;;;;;;;1.00;0.40;;;20.00;88.70;;;;;;4984165;28;20490;-85
2022/07/07 08:46:27;;;;;;;1.17;0.40;;;20.00;89.30;;;;;;4974051;28;20026;-87
2022/07/07 08:48:53;;;;;;;1.33;0.47;;;20.00;89.50;;;;;;4993202;28;20625;-85
2022/07/07 08:51:21;;;;;;;0.68;0.35;;;20.10;89.40;;;;;;4975614;28;20033;-86
2022/07/07 08:53:47;;;;;;;1.05;0.40;;;20.10;89.10;;;;;;4991866;28;20031;-87
2022/07/07 08:56:14;;;;;;;2.08;0.85;;;20.20;89.80;;;;;;4992582;28;20053;-86
2022/07/07 08:58:39;;;;;;;1.55;0.60;;;20.10;89.20;;;;;;4985307;28;20058;-86
2022/07/07 09:01:06;;;;;;;1.63;0.50;;;20.50;89.30;;;;;;4988610;28;20046;-85
2022/07/07 09:03:33;;;;;;;1.38;0.50;;;20.70;89.10;;;;;;4991985;28;20022;-86
2022/07/07 09:06:02;;;;;;;1.55;0.55;;;20.80;89.10;;;;;;4979408;28;20030;-86
2022/07/07 09:08:30;;;;;;;1.35;0.50;;;21.20;87.80;;;;;;4992111;28;20422;-86
2022/07/07 09:10:56;;;;;;;1.88;0.50;;;21.50;88.10;;;;;;4990843;28;20030;-86
2022/07/07 09:13:30;;;;;;;3.95;0.98;;;21.50;87.60;;;;;;4970558;28;20118;-86
2022/07/07 09:16:02;;;;;;;1.67;0.70;;;21.60;87.80;;;;;;4974385;28;20120;-86
2022/07/07 09:18:33;;;;;;;1.98;0.63;;;21.80;88.40;;;;;;4967913;28;20027;-86
2022/07/07 09:20:59;;;;;;;1.75;0.60;;;22.00;88.00;;;;;;4967902;28;20044;-87
2022/07/07 09:23:26;;;;;;;1.83;0.55;;;22.40;88.00;;;;;;4988480;28;20019;-86
2022/07/07 09:25:52;;;;;;;1.23;0.50;;;22.60;87.70;;;;;;4986665;28;20709;-86
2022/07/07 09:28:17;;;;;;;2.42;0.68;;;22.50;86.50;;;;;;4964977;28;20054;-86
2022/07/07 09:30:45;;;;;;;3.05;0.50;;;22.40;86.40;;;;;;4975238;28;20769;-84
2022/07/07 09:33:13;;;;;;;2.35;0.43;;;22.00;87.50;;;;;;4967801;28;20109;-86
2022/07/07 09:38:28;;;;;;;0.70;0.40;;;21.50;90.10;;;;;;4992900;28;20064;-86
2022/07/07 09:41:08;;;;;;;1.23;0.40;;;21.30;89.90;;;;;;4973736;28;20026;-86
2022/07/07 09:43:53;;;;;;;1.27;0.52;;;20.90;90.30;;;;;;4984049;28;20065;-86
2022/07/07 09:46:26;;;;;;;0.70;0.38;;;20.80;90.90;;;;;;4974494;28;20022;-86
2022/07/07 09:48:54;;;;;;;1.08;0.40;;;20.60;91.30;;;;;;4988894;28;20058;-86
2022/07/07 09:51:24;;;;;;;0.85;0.35;;;20.50;91.40;;;;;;4974593;28;20022;-86
2022/07/07 09:54:02;;;;;;;1.85;0.40;;;20.30;91.90;;;;;;4974003;28;20033;-86
2022/07/07 09:56:32;;;;;;;1.15;0.22;;;20.20;92.00;;;;;;4985696;28;20364;-87
2022/07/07 09:59:00;;;;;;;1.05;0.32;;;20.00;92.10;;;;;;4991031;28;20037;-86
2022/07/07 10:01:28;;;;;;;0.82;0.30;;;20.00;92.30;;;;;;4973184;28;20081;-86
2022/07/07 10:03:57;;;;;;;1.85;0.38;;;19.70;92.40;;;;;;4986529;28;20031;-87
2022/07/07 10:06:27;;;;;;;0.95;0.35;;;19.70;92.40;;;;;;4990412;28;20029;-87
2022/07/07 10:09:01;;;;;;;2.08;0.50;;;19.60;92.50;;;;;;4973588;28;20438;-85
2022/07/07 10:11:34;;;;;;;0.85;0.30;;;19.70;92.60;;;;;;4989235;28;20019;-87
2022/07/07 10:14:07;;;;;;;1.30;0.45;;;19.50;92.70;;;;;;4973840;28;20022;-87
2022/07/07 10:16:33;;;;;;;1.00;0.40;;;19.60;92.70;;;;;;4973625;28;20525;-85
2022/07/07 10:19:00;;;;;;;2.63;0.50;;;19.60;92.90;;;;;;4991013;28;20034;-84
2022/07/07 10:21:26;;;;;;;0.50;0.28;;;19.80;93.00;;;;;;4967034;28;20926;-87
2022/07/07 10:23:53;;;;;;;0.57;0.30;;;20.00;93.00;;;;;;4990631;28;20026;-85
2022/07/07 10:26:38;;;;;;;1.77;0.45;;;20.20;92.80;;;;;;4990348;28;20029;-87
2022/07/07 10:29:05;;;;;;;1.42;0.38;;;20.50;92.60;;;;;;4973139;28;20126;-86
2022/07/07 10:31:31;;;;;;;0.70;0.40;;;21.00;92.10;;;;;;4973705;28;20394;-87
2022/07/07 10:34:02;;;;;;;0.70;0.30;;;21.30;92.10;;;;;;4989865;28;20030;-85
2022/07/07 10:36:49;;;;;;;0.82;0.40;;;21.50;90.90;;;;;;4985039;28;20113;-86
2022/07/07 10:39:15;;;;;;;1.25;0.38;;;21.70;90.00;;;;;;4968369;28;20031;-87
2022/07/07 10:41:52;;;;;;;1.73;0.50;;;21.70;90.10;;;;;;4964290;28;20035;-86
2022/07/07 10:44:20;;;;;;;0.98;0.32;;;21.80;90.20;;;;;;4991571;28;20019;-86
2022/07/07 10:46:58;;;;;;;1.02;0.40;;;21.90;90.30;;;;;;4974483;28;20038;-86
2022/07/07 10:49:38;;;;;;;0.90;0.30;;;21.80;90.20;;;;;;4977428;28;20041;-86
2022/07/07 10:52:15;;;;;;;1.17;0.40;;;21.70;90.20;;;;;;4976296;28;20375;-87
2022/07/07 10:54:50;;;;;;;1.42;0.73;;;21.60;90.20;;;;;;4977045;28;20030;-86
2022/07/07 10:57:18;;;;;;;1.40;0.38;;;21.40;90.40;;;;;;4992086;28;20037;-86
2022/07/07 11:00:00;;;;;;;2.00;0.50;;;21.50;90.40;;;;;;4978718;28;20583;-87
2022/07/07 11:02:47;;;;;;;1.13;0.43;;;21.30;90.50;;;;;;4989175;28;20026;-85
2022/07/07 11:05:13;;;;;;;2.50;0.40;;;21.30;91.00;;;;;;4977278;28;20030;-86
2022/07/07 11:08:06;;;;;;;2.42;0.47;;;21.30;90.70;;;;;;4992466;28;20022;-87
2022/07/07 11:10:52;;;;;;;0.95;0.40;;;21.10;90.80;;;;;;4970801;28;20030;-86
2022/07/07 11:13:31;;;;;;;1.23;0.52;;;21.10;91.40;;;;;;4991039;28;20023;-86
2022/07/07 11:16:10;;;;;;;0.93;0.45;;;21.10;91.30;;;;;;4976584;28;20026;-84
2022/07/07 11:18:36;;;;;;;0.65;0.30;;;20.90;91.10;;;;;;4993852;28;20088;-86
2022/07/07 11:21:04;;;;;;;0.70;0.30;;;21.00;91.40;;;;;;4976293;28;20060;-86
2022/07/07 11:23:55;;;;;;;1.52;0.40;;;20.90;91.60;;;;;;4977258;28;20118;-86
2022/07/07 11:26:30;;;;;;;1.27;0.43;;;20.90;91.80;;;;;;4973620;28;20105;-87
2022/07/07 11:28:59;;;;;;;1.17;0.40;;;20.90;91.90;;;;;;4977898;28;20034;-87
2022/07/07 11:31:27;;;;;;;0.60;0.35;;;20.70;92.20;;;;;;4992283;28;20061;-86
2022/07/07 11:33:58;;;;;;;1.42;0.38;;;20.80;92.00;;;;;;4980411;28;20026;-87
2022/07/07 11:36:26;;;;;;;0.95;0.40;;;20.50;92.30;;;;;;4976192;28;20042;-87
2022/07/07 11:38:58;;;;;;;0.82;0.30;;;20.70;92.50;;;;;;4991411;28;20105;-86
2022/07/07 11:41:42;;;;;;;2.17;0.40;;;20.80;92.20;;;;;;4976698;28;20019;-86
2022/07/07 11:44:17;;;;;;;1.35;0.40;;;20.80;92.10;;;;;;4973144;28;20106;-88
2022/07/07 11:46:46;;;;;;;1.08;0.32;;;20.80;92.60;;;;;;4990414;28;20019;-86
2022/07/07 11:49:16;;;;;;;0.88;0.30;;;20.90;92.00;;;;;;4993218;28;20022;-85
2022/07/07 11:51:46;;;;;;;0.90;0.30;;;20.90;92.20;;;;;;4995264;28;20054;-85
2022/07/07 11:54:15;;;;;;;1.10;0.40;;;20.90;92.30;;;;;;4976928;28;20395;-85
2022/07/07 11:56:42;;;;;;;2.22;0.40;;;20.90;92.10;;;;;;4976681;28;20061;-86
2022/07/07 11:59:08;;;;;;;2.17;0.40;;;20.70;92.70;;;;;;4977276;28;20189;-86
2022/07/07 12:01:36;;;;;;;1.60;0.40;;;20.80;93.00;;;;;;4977324;28;20526;-85
2022/07/07 12:04:22;;;;;;;1.08;0.32;;;20.80;93.20;;;;;;4992975;28;20054;-86
2022/07/07 12:06:48;;;;;;;0.70;0.40;;;20.70;93.20;;;;;;4976224;28;20026;-86
2022/07/07 12:09:16;;;;;;;2.58;0.30;;;20.90;92.90;;;;;;4989232;28;20037;-86
2022/07/07 12:11:42;;;;;;;0.82;0.30;;;20.80;92.40;;;;;;4993658;28;20065;-85
2022/07/07 12:14:12;;;;;;;0.85;0.40;;;20.80;92.50;;;;;;4993353;28;20034;-85
2022/07/07 12:16:46;;;;;;;2.22;0.40;;;20.80;92.60;;;;;;4992154;28;20502;-86
2022/07/07 12:19:12;;;;;;;1.08;0.40;;;20.70;92.70;;;;;;4993469;28;20018;-86
2022/07/07 12:21:45;;;;;;;1.17;0.45;;;20.70;92.50;;;;;;4977351;28;20022;-87
2022/07/07 12:24:20;;;;;;;0.77;0.32;;;20.50;92.00;;;;;;4975685;28;20022;-88
2022/07/07 12:26:51;;;;;;;1.95;0.40;;;20.50;92.40;;;;;;4991563;28;20021;-87
2022/07/07 12:29:21;;;;;;;0.88;0.35;;;20.50;92.00;;;;;;4977483;28;20026;-86
2022/07/07 12:31:48;;;;;;;2.78;0.73;;;20.50;92.20;;;;;;4976675;28;20034;-87
2022/07/07 12:34:16;;;;;;;1.48;0.43;;;20.70;92.00;;;;;;4974370;28;20030;-87
2022/07/07 12:36:44;;;;;;;1.85;0.47;;;20.70;91.50;;;;;;4990458;28;20029;-86
2022/07/07 12:39:13;;;;;;;1.17;0.50;;;20.70;91.50;;;;;;4975820;28;20113;-85
2022/07/07 12:41:40;;;;;;;2.90;0.75;;;20.70;91.60;;;;;;4972221;28;20034;-86
2022/07/07 12:44:19;;;;;;;1.13;0.40;;;20.70;91.50;;;;;;4993471;28;20034;-85
2022/07/07 12:46:45;;;;;;;1.80;0.40;;;20.80;91.50;;;;;;4985991;28;20146;-86
2022/07/07 12:49:12;;;;;;;2.30;0.40;;;20.90;91.50;;;;;;4976105;28;20034;-85
2022/07/07 12:51:44;;;;;;;0.77;0.30;;;20.90;91.50;;;;;;4974741;28;20038;-85
2022/07/07 12:54:23;;;;;;;1.27;0.50;;;20.80;91.20;;;;;;4991834;28;20459;-85
2022/07/07 12:57:04;;;;;;;1.50;0.47;;;20.70;91.10;;;;;;4994540;28;20529;-86
2022/07/07 12:59:38;;;;;;;0.65;0.40;;;20.70;91.30;;;;;;4974092;28;20030;-86
2022/07/07 13:02:05;;;;;;;1.95;0.40;;;20.60;91.40;;;;;;4975712;28;20498;-84
2022/07/07 13:07:37;;;;;;;1.13;0.57;;;20.50;92.10;;;;;;3177012;26;20052;-90
2022/07/07 13:10:38;;;;;;;1.58;0.40;;;20.40;91.90;;;;;;5023381;28;20061;-89
2022/07/07 13:13:40;;;;;;;;;;;;;;;;;;;;;
2022/07/07 13:16:27;;;;;;;1.55;0.93;;;20.60;91.90;;;;;;5033876;28;20031;-89